createdAt,value
2019-03-08T00:02:27.307Z,11.10
2019-03-08T00:04:55.837Z,11.20
2019-03-08T00:07:28.871Z,11.30
2019-03-08T00:09:57.679Z,11.30
2019-03-08T00:12:27.891Z,11.30
2019-03-08T00:14:56.420Z,11.30
2019-03-08T00:17:24.939Z,11.20
2019-03-08T00:19:53.435Z,11.10
2019-03-08T00:22:21.979Z,11.10
2019-03-08T00:24:50.499Z,11.00
2019-03-08T00:27:19.085Z,11.00
2019-03-08T00:29:47.589Z,11.10
2019-03-08T00:32:16.117Z,11.00
2019-03-08T00:34:44.658Z,10.90
2019-03-08T00:37:13.171Z,10.90
2019-03-08T00:39:41.766Z,10.90
2019-03-08T00:42:10.269Z,10.90
2019-03-08T00:44:38.820Z,10.90
2019-03-08T00:47:07.354Z,10.90
2019-03-08T00:49:35.976Z,10.80
2019-03-08T00:52:04.752Z,10.80
2019-03-08T00:54:33.276Z,10.90
2019-03-08T00:57:01.811Z,10.90
2019-03-08T00:59:30.326Z,10.80
2019-03-08T01:01:58.845Z,10.60
2019-03-08T01:04:28.425Z,10.70
2019-03-08T01:06:56.994Z,10.60
2019-03-08T01:09:25.533Z,10.60
2019-03-08T01:11:54.084Z,10.40
2019-03-08T01:14:22.601Z,10.40
2019-03-08T01:16:51.185Z,10.40
2019-03-08T01:19:19.702Z,10.30
2019-03-08T01:21:49.280Z,10.30
2019-03-08T01:24:17.800Z,10.30
2019-03-08T01:26:46.332Z,10.10
2019-03-08T01:29:14.871Z,10.10
2019-03-08T01:31:43.407Z,10.10
2019-03-08T01:34:11.947Z,10.00
2019-03-08T01:36:40.452Z,10.00
2019-03-08T01:39:09.414Z,10.00
2019-03-08T01:41:38.016Z,9.90
2019-03-08T01:44:06.548Z,10.00
2019-03-08T01:46:35.122Z,10.10
2019-03-08T01:49:03.644Z,10.10
2019-03-08T01:51:32.366Z,10.00
2019-03-08T01:54:01.093Z,10.00
2019-03-08T01:56:30.606Z,10.00
2019-03-08T01:58:59.108Z,10.00
2019-03-08T02:01:27.746Z,9.90
2019-03-08T02:03:56.312Z,9.90
2019-03-08T02:06:25.160Z,9.80
2019-03-08T02:08:53.701Z,9.80
2019-03-08T02:11:22.204Z,9.80
2019-03-08T02:13:50.998Z,9.80
2019-03-08T02:16:19.590Z,9.80
2019-03-08T02:18:48.173Z,9.80
2019-03-08T02:21:17.052Z,9.80
2019-03-08T02:23:45.596Z,9.80
2019-03-08T02:26:14.221Z,9.80
2019-03-08T02:28:42.795Z,9.60
2019-03-08T02:31:12.974Z,9.50
2019-03-08T02:33:41.509Z,9.50
2019-03-08T02:36:10.306Z,9.50
2019-03-08T02:38:38.882Z,9.50
2019-03-08T02:41:07.394Z,9.50
2019-03-08T02:43:35.951Z,9.50
2019-03-08T02:46:04.492Z,9.50
2019-03-08T02:48:33.019Z,9.50
2019-03-08T02:51:01.646Z,9.40
2019-03-08T02:53:30.166Z,9.30
2019-03-08T02:55:58.722Z,9.30
2019-03-08T02:58:27.227Z,9.20
2019-03-08T03:00:56.976Z,9.30
2019-03-08T03:03:25.543Z,9.40
2019-03-08T03:05:54.045Z,9.40
2019-03-08T03:08:22.602Z,9.50
2019-03-08T03:10:51.148Z,9.40
2019-03-08T03:13:19.834Z,9.40
2019-03-08T03:15:48.470Z,9.30
2019-03-08T03:18:17.522Z,9.20
2019-03-08T03:20:46.093Z,9.10
2019-03-08T03:23:14.679Z,9.10
2019-03-08T03:25:43.194Z,9.10
2019-03-08T03:28:11.693Z,9.10
2019-03-08T03:30:40.269Z,9.00
2019-03-08T03:33:08.811Z,9.00
2019-03-08T03:35:37.669Z,9.10
2019-03-08T03:38:06.227Z,9.10
2019-03-08T03:40:34.785Z,9.20
2019-03-08T03:43:03.337Z,9.30
2019-03-08T03:45:31.987Z,9.40
2019-03-08T03:48:00.520Z,9.40
2019-03-08T03:50:29.089Z,9.40
2019-03-08T03:52:59.212Z,9.40
2019-03-08T03:55:27.765Z,9.30
2019-03-08T03:57:56.265Z,9.30
2019-03-08T04:00:24.882Z,9.20
2019-03-08T04:02:53.784Z,9.20
2019-03-08T04:05:22.331Z,9.20
2019-03-08T04:07:50.902Z,9.30
2019-03-08T04:10:19.938Z,9.20
2019-03-08T04:12:48.454Z,9.30
2019-03-08T04:15:20.922Z,9.30
2019-03-08T04:17:49.555Z,9.30
2019-03-08T04:20:19.061Z,9.20
2019-03-08T04:22:47.656Z,9.30
2019-03-08T04:25:16.179Z,9.30
2019-03-08T04:27:44.701Z,9.40
2019-03-08T04:30:15.756Z,9.30
2019-03-08T04:32:44.325Z,9.20
2019-03-08T04:35:12.894Z,9.20
2019-03-08T04:37:41.434Z,9.20
2019-03-08T04:40:11.500Z,9.20
2019-03-08T04:42:39.998Z,9.20
2019-03-08T04:45:16.354Z,9.30
2019-03-08T04:47:45.330Z,9.40
2019-03-08T04:50:14.834Z,9.30
2019-03-08T04:52:43.319Z,9.30
2019-03-08T04:55:16.628Z,9.20
2019-03-08T04:57:44.706Z,9.10
2019-03-08T05:00:14.968Z,9.10
2019-03-08T05:02:43.733Z,9.00
2019-03-08T05:05:12.240Z,8.90
2019-03-08T05:07:40.805Z,8.90
2019-03-08T05:10:16.712Z,8.80
2019-03-08T05:12:45.352Z,8.80
2019-03-08T05:15:13.936Z,8.70
2019-03-08T05:17:42.461Z,8.70
2019-03-08T05:20:12.269Z,8.70
2019-03-08T05:22:40.797Z,8.70
2019-03-08T05:25:14.105Z,8.50
2019-03-08T05:27:42.669Z,8.40
2019-03-08T05:30:17.545Z,8.40
2019-03-08T05:32:46.045Z,8.40
2019-03-08T05:35:14.998Z,8.30
2019-03-08T05:37:43.893Z,8.30
2019-03-08T05:40:15.666Z,8.30
2019-03-08T05:42:44.205Z,8.30
2019-03-08T05:45:13.774Z,8.30
2019-03-08T05:47:42.407Z,8.30
2019-03-08T05:50:11.855Z,8.30
2019-03-08T05:52:40.711Z,8.20
2019-03-08T05:55:10.585Z,8.20
2019-03-08T05:57:39.109Z,8.10
2019-03-08T06:00:16.701Z,8.10
2019-03-08T06:02:45.282Z,8.20
2019-03-08T06:05:13.969Z,8.20
2019-03-08T06:07:42.558Z,8.10
2019-03-08T06:10:26.259Z,8.20
2019-03-08T06:12:55.307Z,8.20
2019-03-08T06:15:23.807Z,8.20
2019-03-08T06:17:52.427Z,8.20
2019-03-08T06:20:21.030Z,8.30
2019-03-08T06:22:49.631Z,8.40
2019-03-08T06:25:18.280Z,8.40
2019-03-08T06:27:46.826Z,8.30
2019-03-08T06:30:17.011Z,8.30
2019-03-08T06:32:45.659Z,8.30
2019-03-08T06:35:14.195Z,8.20
2019-03-08T06:37:42.773Z,8.20
2019-03-08T06:40:15.078Z,8.30
2019-03-08T06:42:43.705Z,8.40
2019-03-08T06:45:16.467Z,8.50
2019-03-08T06:47:44.686Z,8.60
2019-03-08T06:50:14.532Z,8.60
2019-03-08T06:52:43.025Z,8.70
2019-03-08T06:55:17.946Z,8.80
2019-03-08T06:57:46.535Z,8.90
2019-03-08T07:00:38.828Z,8.90
2019-03-08T07:03:09.305Z,9.00
2019-03-08T07:05:38.770Z,9.00
2019-03-08T07:08:13.604Z,9.10
2019-03-08T07:11:29.470Z,9.30
2019-03-08T07:13:56.469Z,9.40
2019-03-08T07:16:25.301Z,9.70
2019-03-08T07:18:53.815Z,9.80
2019-03-08T07:21:23.978Z,9.90
2019-03-08T07:24:00.159Z,9.90
2019-03-08T07:26:39.465Z,10.00
2019-03-08T07:29:27.749Z,10.20
2019-03-08T07:32:13.340Z,10.30
2019-03-08T07:34:45.459Z,10.20
2019-03-08T07:37:32.210Z,10.30
2019-03-08T07:43:06.316Z,10.70
2019-03-08T07:45:53.047Z,10.80
2019-03-08T07:48:28.917Z,11.00
2019-03-08T07:51:15.434Z,11.00
2019-03-08T07:53:54.452Z,11.10
2019-03-08T07:56:39.929Z,11.20
2019-03-08T07:59:12.782Z,11.40
2019-03-08T08:02:36.177Z,11.60
2019-03-08T08:05:14.360Z,11.70
2019-03-08T08:07:59.513Z,12.00
2019-03-08T08:10:29.615Z,12.00
2019-03-08T08:12:59.799Z,12.00
2019-03-08T08:15:41.937Z,12.10
2019-03-08T08:18:11.362Z,12.30
2019-03-08T08:21:01.266Z,12.30
2019-03-08T08:23:35.638Z,12.40
2019-03-08T08:26:06.352Z,12.70
2019-03-08T08:28:36.511Z,12.60
2019-03-08T08:31:22.794Z,12.70
2019-03-08T08:33:58.353Z,12.80
2019-03-08T08:36:37.600Z,12.90
2019-03-08T08:39:18.160Z,13.00
2019-03-08T08:42:04.533Z,13.10
2019-03-08T08:44:46.616Z,13.10
2019-03-08T08:47:19.419Z,13.20
2019-03-08T08:49:54.834Z,13.30
2019-03-08T08:52:24.268Z,13.50
2019-03-08T08:55:06.762Z,13.70
2019-03-08T08:57:36.860Z,13.80
2019-03-08T09:00:10.284Z,14.00
2019-03-08T09:02:52.929Z,14.10
2019-03-08T09:05:23.114Z,14.30
2019-03-08T09:08:12.468Z,14.30
2019-03-08T09:10:48.486Z,14.50
2019-03-08T09:13:21.400Z,14.50
2019-03-08T09:15:51.494Z,14.50
2019-03-08T09:18:21.671Z,14.50
2019-03-08T09:20:54.594Z,14.70
2019-03-08T09:23:42.661Z,15.00
2019-03-08T09:26:12.777Z,14.90
2019-03-08T09:28:45.443Z,14.90
2019-03-08T09:31:17.359Z,15.10
2019-03-08T09:33:47.544Z,15.30
2019-03-08T09:36:26.621Z,15.40
2019-03-08T09:39:11.612Z,15.30
2019-03-08T09:41:41.693Z,15.40
2019-03-08T09:44:14.664Z,15.40
2019-03-08T09:46:44.754Z,15.40
2019-03-08T09:49:20.548Z,15.50
2019-03-08T09:51:59.904Z,15.60
2019-03-08T09:54:49.894Z,15.80
2019-03-08T09:57:28.656Z,15.90
2019-03-08T10:00:15.458Z,15.90
2019-03-08T10:03:03.843Z,16.10
2019-03-08T10:05:34.279Z,16.00
2019-03-08T10:08:10.142Z,16.20
2019-03-08T10:10:52.424Z,16.40
2019-03-08T10:13:33.700Z,16.50
2019-03-08T10:16:20.107Z,16.30
2019-03-08T10:18:52.675Z,16.30
2019-03-08T10:21:35.100Z,16.30
2019-03-08T10:24:05.328Z,16.60
2019-03-08T10:26:44.627Z,16.80
2019-03-08T10:29:20.681Z,16.90
2019-03-08T10:32:07.518Z,17.00
2019-03-08T10:34:39.306Z,17.10
2019-03-08T10:37:25.715Z,17.20
2019-03-08T10:40:07.978Z,17.00
2019-03-08T10:42:51.075Z,17.20
2019-03-08T10:45:21.237Z,17.40
2019-03-08T10:48:07.934Z,17.50
2019-03-08T10:50:38.009Z,17.50
2019-03-08T10:53:08.283Z,17.80
2019-03-08T10:55:47.390Z,18.00
2019-03-08T10:58:24.694Z,18.00
2019-03-08T11:00:54.792Z,17.70
2019-03-08T11:03:30.470Z,17.90
2019-03-08T11:06:18.732Z,17.80
2019-03-08T11:08:51.441Z,17.90
2019-03-08T11:11:37.374Z,18.00
2019-03-08T11:14:07.885Z,17.90
2019-03-08T11:16:44.041Z,17.80
2019-03-08T11:19:14.188Z,17.90
2019-03-08T11:22:01.729Z,18.10
2019-03-08T11:24:31.932Z,18.40
2019-03-08T11:27:05.432Z,18.50
2019-03-08T11:29:38.720Z,18.60
2019-03-08T11:32:24.040Z,18.80
2019-03-08T11:34:56.929Z,18.90
2019-03-08T11:37:27.927Z,18.90
2019-03-08T11:40:07.398Z,18.90
2019-03-08T11:42:37.844Z,18.70
2019-03-08T11:45:29.133Z,18.80
2019-03-08T11:48:17.075Z,18.60
2019-03-08T11:50:47.171Z,18.20
2019-03-08T11:53:26.346Z,17.80
2019-03-08T11:56:14.694Z,17.80
2019-03-08T11:58:54.021Z,17.70
2019-03-08T12:01:38.983Z,17.60
2019-03-08T12:04:25.113Z,17.70
2019-03-08T12:07:13.327Z,17.70
2019-03-08T12:09:43.450Z,17.90
2019-03-08T12:12:28.182Z,17.80
2019-03-08T12:14:58.288Z,17.90
2019-03-08T12:17:37.693Z,18.30
2019-03-08T12:20:27.637Z,18.60
2019-03-08T12:23:09.923Z,18.80
2019-03-08T12:25:43.842Z,19.00
2019-03-08T12:28:13.942Z,18.70
2019-03-08T12:30:49.995Z,18.60
2019-03-08T12:33:20.078Z,18.70
2019-03-08T12:35:50.258Z,18.80
2019-03-08T12:38:23.452Z,18.90
2019-03-08T12:41:10.006Z,19.20
2019-03-08T12:43:56.379Z,19.30
2019-03-08T12:46:33.671Z,19.50
2019-03-08T12:49:55.933Z,19.40
2019-03-08T12:52:56.551Z,19.50
2019-03-08T12:58:27.890Z,19.80
2019-03-08T13:01:38.621Z,19.50
2019-03-08T13:07:28.499Z,19.50
2019-03-08T13:10:04.939Z,19.60
2019-03-08T13:13:13.158Z,19.60
2019-03-08T13:16:04.186Z,19.70
2019-03-08T13:21:39.480Z,19.80
2019-03-08T13:24:51.098Z,19.60
2019-03-08T13:27:19.618Z,19.60
2019-03-08T13:33:04.699Z,21.20
2019-03-08T13:38:02.448Z,21.60
2019-03-08T13:38:39.764Z,20.60
2019-03-08T13:41:20.029Z,20.40
2019-03-08T13:43:51.508Z,20.10
2019-03-08T13:46:45.649Z,20.10
2019-03-08T13:52:27.474Z,22.10
2019-03-08T13:58:10.256Z,25.20
2019-03-08T14:00:49.428Z,25.00
2019-03-08T14:03:30.293Z,26.00
2019-03-08T14:06:02.141Z,26.60
2019-03-08T14:08:32.371Z,27.50
2019-03-08T14:11:28.922Z,27.70
2019-03-08T14:19:46.325Z,27.30
2019-03-08T14:25:23.691Z,26.30
2019-03-08T14:27:52.361Z,26.20
2019-03-08T14:30:43.628Z,26.70
2019-03-08T14:36:27.173Z,27.40
2019-03-08T14:38:55.766Z,27.60
2019-03-08T14:42:09.201Z,27.80
2019-03-08T14:45:10.057Z,27.10
2019-03-08T14:47:50.587Z,27.20
2019-03-08T14:50:20.289Z,26.40
2019-03-08T14:52:55.722Z,27.10
2019-03-08T14:55:35.383Z,27.50
2019-03-08T14:58:06.660Z,27.50
2019-03-08T15:00:38.425Z,27.00
2019-03-08T15:05:15.342Z,26.80
2019-03-08T15:06:15.359Z,28.60
2019-03-08T15:11:31.789Z,28.60
2019-03-08T15:14:11.035Z,28.50
2019-03-08T15:16:42.715Z,28.60
2019-03-08T15:19:27.761Z,29.30
2019-03-08T15:22:02.544Z,29.00
2019-03-08T15:24:38.053Z,26.80
2019-03-08T15:27:01.433Z,27.10
2019-03-08T15:29:30.103Z,27.50
2019-03-08T15:31:58.613Z,28.50
2019-03-08T15:34:27.291Z,28.90
2019-03-08T15:37:10.875Z,28.80
2019-03-08T15:39:45.191Z,29.20
2019-03-08T15:42:25.898Z,29.70
2019-03-08T15:45:07.148Z,29.90
2019-03-08T15:47:44.871Z,29.10
2019-03-08T15:50:36.413Z,28.00
2019-03-08T15:53:06.609Z,26.90
2019-03-08T15:58:34.162Z,26.50
2019-03-08T16:01:02.781Z,25.70
2019-03-08T16:03:33.944Z,26.00
2019-03-08T16:06:03.062Z,26.10
2019-03-08T16:08:31.962Z,26.10
2019-03-08T16:11:00.663Z,26.00
2019-03-08T16:13:29.329Z,26.00
2019-03-08T16:15:57.890Z,25.20
2019-03-08T16:18:26.730Z,24.20
2019-03-08T16:20:59.959Z,23.80
2019-03-08T16:23:28.666Z,23.60
2019-03-08T16:26:07.930Z,23.00
2019-03-08T16:28:53.377Z,22.60
2019-03-08T16:31:38.448Z,22.00
2019-03-08T16:34:11.369Z,21.50
2019-03-08T16:39:54.995Z,20.20
2019-03-08T16:42:32.462Z,19.70
2019-03-08T16:45:11.585Z,19.20
2019-03-08T16:47:46.006Z,19.00
2019-03-08T16:50:22.251Z,18.90
2019-03-08T16:52:51.935Z,18.70
2019-03-08T16:55:37.299Z,18.60
2019-03-08T16:58:07.490Z,18.40
2019-03-08T17:00:43.662Z,18.30
2019-03-08T17:03:23.146Z,18.20
2019-03-08T17:06:00.025Z,18.10
2019-03-08T17:08:33.264Z,18.00
2019-03-08T17:11:18.891Z,17.90
2019-03-08T17:13:55.332Z,17.80
2019-03-08T17:16:42.198Z,17.70
2019-03-08T17:19:15.102Z,17.60
2019-03-08T17:21:45.389Z,17.30
2019-03-08T17:24:21.539Z,17.30
2019-03-08T17:26:57.815Z,17.30
2019-03-08T17:29:30.644Z,17.30
2019-03-08T17:32:01.160Z,17.20
2019-03-08T17:34:32.038Z,17.10
2019-03-08T17:37:11.075Z,17.00
2019-03-08T17:42:38.641Z,16.80
2019-03-08T17:45:25.576Z,16.70
2019-03-08T17:48:07.906Z,16.60
2019-03-08T17:50:52.644Z,16.50
2019-03-08T17:53:34.350Z,16.50
2019-03-08T17:56:13.375Z,16.40
2019-03-08T17:59:10.665Z,16.40
2019-03-08T18:01:40.807Z,16.20
2019-03-08T18:04:11.257Z,16.20
2019-03-08T18:06:53.343Z,16.10
2019-03-08T18:09:27.302Z,16.10
2019-03-08T18:11:57.540Z,16.00
2019-03-08T18:14:42.004Z,16.00
2019-03-08T18:17:20.559Z,15.80
2019-03-08T18:19:56.729Z,15.70
2019-03-08T18:22:32.849Z,15.70
2019-03-08T18:25:18.777Z,15.60
2019-03-08T18:27:54.198Z,15.50
2019-03-08T18:30:37.247Z,15.50
2019-03-08T18:33:19.398Z,15.40
2019-03-08T18:35:52.343Z,15.20
2019-03-08T18:38:39.214Z,15.10
2019-03-08T18:41:26.731Z,15.20
2019-03-08T18:44:00.009Z,15.10
2019-03-08T18:46:36.163Z,15.10
2019-03-08T18:49:18.177Z,15.20
2019-03-08T18:51:49.918Z,15.10
2019-03-08T18:54:35.261Z,15.10
2019-03-08T18:57:05.373Z,15.10
2019-03-08T18:59:38.196Z,15.00
2019-03-08T19:02:22.539Z,15.00
2019-03-08T19:04:53.030Z,14.90
2019-03-08T19:07:23.106Z,14.80
2019-03-08T19:10:05.243Z,14.80
2019-03-08T19:12:35.427Z,14.80
2019-03-08T19:15:13.929Z,14.70
2019-03-08T19:17:46.960Z,14.70
2019-03-08T19:20:20.196Z,14.70
2019-03-08T19:23:07.639Z,14.70
2019-03-08T19:25:45.357Z,14.70
2019-03-08T19:28:18.215Z,14.70
2019-03-08T19:30:51.121Z,14.60
2019-03-08T19:33:37.304Z,14.50
2019-03-08T19:36:07.516Z,14.50
2019-03-08T19:38:40.632Z,14.50
2019-03-08T19:41:16.813Z,14.30
2019-03-08T19:44:02.240Z,14.30
2019-03-08T19:46:45.874Z,14.30
2019-03-08T19:49:32.185Z,14.20
2019-03-08T19:52:05.018Z,14.10
2019-03-08T19:54:51.213Z,13.90
2019-03-08T19:57:27.356Z,13.80
2019-03-08T20:00:03.646Z,13.80
2019-03-08T20:02:50.496Z,13.80
2019-03-08T20:05:23.242Z,13.70
2019-03-08T20:08:05.247Z,13.70
2019-03-08T20:10:51.650Z,13.70
2019-03-08T20:13:22.005Z,13.70
2019-03-08T20:16:04.131Z,13.70
2019-03-08T20:18:38.349Z,13.60
2019-03-08T20:21:20.077Z,13.60
2019-03-08T20:23:59.485Z,13.60
2019-03-08T20:26:38.419Z,13.60
2019-03-08T20:29:25.348Z,13.50
2019-03-08T20:31:58.724Z,13.40
2019-03-08T20:34:41.055Z,13.50
2019-03-08T20:37:14.307Z,13.40
2019-03-08T20:39:47.717Z,13.30
2019-03-08T20:42:23.902Z,13.30
2019-03-08T20:44:54.200Z,13.40
2019-03-08T20:47:30.330Z,13.30
2019-03-08T20:49:58.955Z,13.10
2019-03-08T20:52:27.535Z,12.90
2019-03-08T20:54:59.028Z,12.80
2019-03-08T20:57:27.510Z,12.90
2019-03-08T20:59:56.041Z,12.80
2019-03-08T21:02:24.562Z,12.90
2019-03-08T21:04:53.447Z,12.90
2019-03-08T21:07:21.998Z,12.90
2019-03-08T21:09:50.594Z,12.80
2019-03-08T21:12:19.225Z,12.80
2019-03-08T21:14:47.753Z,12.90
2019-03-08T21:17:16.705Z,12.90
2019-03-08T21:19:45.242Z,12.90
2019-03-08T21:22:24.023Z,12.80
2019-03-08T21:24:52.639Z,12.70
2019-03-08T21:27:21.414Z,12.50
2019-03-08T21:29:50.151Z,12.40
2019-03-08T21:32:19.199Z,12.30
2019-03-08T21:34:47.943Z,12.30
2019-03-08T21:37:17.332Z,12.30
2019-03-08T21:39:46.915Z,12.30
2019-03-08T21:42:15.662Z,12.20
2019-03-08T21:44:44.152Z,12.20
2019-03-08T21:47:12.605Z,12.10
2019-03-08T21:49:41.226Z,12.10
2019-03-08T21:52:09.756Z,11.90
2019-03-08T21:54:38.303Z,11.90
2019-03-08T21:57:07.120Z,11.90
2019-03-08T21:59:35.781Z,11.90
2019-03-08T22:02:04.330Z,11.80
2019-03-08T22:04:34.411Z,11.80
2019-03-08T22:07:02.904Z,11.80
2019-03-08T22:09:51.382Z,11.80
2019-03-08T22:12:19.935Z,11.80
2019-03-08T22:14:50.886Z,11.70
2019-03-08T22:17:19.419Z,11.70
2019-03-08T22:19:49.768Z,11.70
2019-03-08T22:22:26.270Z,11.80
2019-03-08T22:24:50.511Z,11.90
2019-03-08T22:27:19.071Z,11.90
2019-03-08T22:29:50.812Z,11.80
2019-03-08T22:32:23.916Z,11.80
2019-03-08T22:35:00.274Z,11.70
2019-03-08T22:37:34.746Z,11.60
2019-03-08T22:40:03.454Z,11.50
2019-03-08T22:42:31.971Z,11.60
2019-03-08T22:45:00.530Z,11.70
2019-03-08T22:47:29.053Z,11.60
2019-03-08T22:49:57.547Z,11.60
2019-03-08T22:52:26.151Z,11.60
2019-03-08T22:54:54.966Z,11.50
2019-03-08T22:57:23.508Z,11.30
2019-03-08T22:59:51.976Z,11.30
2019-03-08T23:02:20.802Z,11.30
2019-03-08T23:04:49.234Z,11.20
2019-03-08T23:07:18.102Z,11.20
2019-03-08T23:09:47.017Z,11.10
2019-03-08T23:12:15.655Z,11.00
2019-03-08T23:14:44.163Z,10.90
2019-03-08T23:17:12.830Z,11.00
2019-03-08T23:19:41.350Z,11.00
2019-03-08T23:22:09.891Z,11.00
2019-03-08T23:24:38.431Z,10.90
2019-03-08T23:27:14.064Z,10.80
2019-03-08T23:29:44.205Z,10.70
2019-03-08T23:32:14.340Z,10.50
2019-03-08T23:34:42.878Z,10.40
2019-03-08T23:37:11.336Z,10.40
2019-03-08T23:39:39.960Z,10.40
2019-03-08T23:42:14.402Z,10.50
2019-03-08T23:44:42.360Z,10.40
2019-03-08T23:47:10.829Z,10.40
2019-03-08T23:49:39.419Z,10.40
2019-03-08T23:52:08.012Z,10.40
2019-03-08T23:54:36.692Z,10.30
2019-03-08T23:57:05.206Z,10.30
2019-03-08T23:59:36.709Z,10.30
